sensor_id;sensor_type;location;lat;lon;timestamp;temperature;humidity
14405;DHT22;14983;50.866;4.304;2022-09-09T00:01:23;15.00;99.90
14405;DHT22;14983;50.866;4.304;2022-09-09T00:04:00;15.00;99.90
14405;DHT22;14983;50.866;4.304;2022-09-09T00:06:33;15.00;99.90
14405;DHT22;14983;50.866;4.304;2022-09-09T00:09:10;14.90;99.90
14405;DHT22;14983;50.866;4.304;2022-09-09T00:11:42;14.90;99.90
14405;DHT22;14983;50.866;4.304;2022-09-09T00:14:20;14.90;99.90
14405;DHT22;14983;50.866;4.304;2022-09-09T00:16:55;14.80;99.90
14405;DHT22;14983;50.866;4.304;2022-09-09T00:19:26;14.80;99.90
14405;DHT22;14983;50.866;4.304;2022-09-09T00:22:04;14.80;99.90
14405;DHT22;14983;50.866;4.304;2022-09-09T00:24:40;14.80;99.90
14405;DHT22;14983;50.866;4.304;2022-09-09T00:27:16;14.80;99.90
14405;DHT22;14983;50.866;4.304;2022-09-09T00:29:52;14.90;99.90
14405;DHT22;14983;50.866;4.304;2022-09-09T00:32:20;14.80;99.90
14405;DHT22;14983;50.866;4.304;2022-09-09T00:34:52;14.90;99.90
14405;DHT22;14983;50.866;4.304;2022-09-09T00:37:24;15.00;99.90
14405;DHT22;14983;50.866;4.304;2022-09-09T00:39:55;14.90;99.90
14405;DHT22;14983;50.866;4.304;2022-09-09T00:42:30;14.90;99.90
14405;DHT22;14983;50.866;4.304;2022-09-09T00:45:15;14.80;99.90
14405;DHT22;14983;50.866;4.304;2022-09-09T00:47:46;15.00;99.90
14405;DHT22;14983;50.866;4.304;2022-09-09T00:50:31;14.90;99.90
14405;DHT22;14983;50.866;4.304;2022-09-09T00:53:19;14.90;99.90
14405;DHT22;14983;50.866;4.304;2022-09-09T00:55:54;15.00;99.90
14405;DHT22;14983;50.866;4.304;2022-09-09T00:58:24;15.00;99.90
14405;DHT22;14983;50.866;4.304;2022-09-09T01:00:59;15.00;99.90
14405;DHT22;14983;50.866;4.304;2022-09-09T01:03:35;15.00;99.90
14405;DHT22;14983;50.866;4.304;2022-09-09T01:06:13;15.00;99.90
14405;DHT22;14983;50.866;4.304;2022-09-09T01:09:04;15.00;99.90
14405;DHT22;14983;50.866;4.304;2022-09-09T01:11:41;15.00;99.90
14405;DHT22;14983;50.866;4.304;2022-09-09T01:14:16;15.00;99.90
14405;DHT22;14983;50.866;4.304;2022-09-09T01:16:48;15.00;99.90
14405;DHT22;14983;50.866;4.304;2022-09-09T01:19:26;15.10;99.90
14405;DHT22;14983;50.866;4.304;2022-09-09T01:22:01;15.10;99.90
14405;DHT22;14983;50.866;4.304;2022-09-09T01:24:38;15.10;99.90
14405;DHT22;14983;50.866;4.304;2022-09-09T01:27:09;15.10;99.90
14405;DHT22;14983;50.866;4.304;2022-09-09T01:29:37;15.10;99.90
14405;DHT22;14983;50.866;4.304;2022-09-09T01:32:39;15.00;99.90
14405;DHT22;14983;50.866;4.304;2022-09-09T01:35:09;15.10;99.90
14405;DHT22;14983;50.866;4.304;2022-09-09T01:37:38;15.00;99.90
14405;DHT22;14983;50.866;4.304;2022-09-09T01:40:06;15.00;99.90
14405;DHT22;14983;50.866;4.304;2022-09-09T01:42:34;15.00;99.90
14405;DHT22;14983;50.866;4.304;2022-09-09T01:45:02;15.00;99.90
14405;DHT22;14983;50.866;4.304;2022-09-09T01:47:29;15.00;99.90
14405;DHT22;14983;50.866;4.304;2022-09-09T01:49:57;15.00;99.90
14405;DHT22;14983;50.866;4.304;2022-09-09T01:52:25;15.00;99.90
14405;DHT22;14983;50.866;4.304;2022-09-09T01:54:52;15.00;99.90
14405;DHT22;14983;50.866;4.304;2022-09-09T01:57:23;14.90;99.90
14405;DHT22;14983;50.866;4.304;2022-09-09T02:00:03;15.00;99.90
14405;DHT22;14983;50.866;4.304;2022-09-09T02:02:37;14.90;99.90
14405;DHT22;14983;50.866;4.304;2022-09-09T02:05:14;15.00;99.90
14405;DHT22;14983;50.866;4.304;2022-09-09T02:07:48;15.00;99.90
14405;DHT22;14983;50.866;4.304;2022-09-09T02:10:20;15.00;99.90
14405;DHT22;14983;50.866;4.304;2022-09-09T02:12:50;15.00;99.90
14405;DHT22;14983;50.866;4.304;2022-09-09T02:15:23;15.00;99.90
14405;DHT22;14983;50.866;4.304;2022-09-09T02:17:54;14.90;99.90
14405;DHT22;14983;50.866;4.304;2022-09-09T02:20:25;15.00;99.90
14405;DHT22;14983;50.866;4.304;2022-09-09T02:22:56;15.00;99.90
14405;DHT22;14983;50.866;4.304;2022-09-09T02:25:26;15.00;99.90
14405;DHT22;14983;50.866;4.304;2022-09-09T02:27:55;14.90;99.90
14405;DHT22;14983;50.866;4.304;2022-09-09T02:30:25;15.00;99.90
14405;DHT22;14983;50.866;4.304;2022-09-09T02:32:57;15.00;99.90
14405;DHT22;14983;50.866;4.304;2022-09-09T02:35:25;15.20;99.90
14405;DHT22;14983;50.866;4.304;2022-09-09T02:37:58;14.90;99.90
14405;DHT22;14983;50.866;4.304;2022-09-09T02:40:27;15.00;99.90
14405;DHT22;14983;50.866;4.304;2022-09-09T02:42:55;15.00;99.90
14405;DHT22;14983;50.866;4.304;2022-09-09T02:45:27;15.00;99.90
14405;DHT22;14983;50.866;4.304;2022-09-09T02:48:03;15.00;99.90
14405;DHT22;14983;50.866;4.304;2022-09-09T02:50:39;15.00;99.90
14405;DHT22;14983;50.866;4.304;2022-09-09T02:53:16;15.00;99.90
14405;DHT22;14983;50.866;4.304;2022-09-09T02:55:46;15.00;99.90
14405;DHT22;14983;50.866;4.304;2022-09-09T02:58:16;15.90;99.90
14405;DHT22;14983;50.866;4.304;2022-09-09T03:00:46;15.00;99.90
14405;DHT22;14983;50.866;4.304;2022-09-09T03:03:13;15.00;99.90
14405;DHT22;14983;50.866;4.304;2022-09-09T03:05:42;15.00;99.90
14405;DHT22;14983;50.866;4.304;2022-09-09T03:08:15;15.00;99.90
14405;DHT22;14983;50.866;4.304;2022-09-09T03:10:42;15.00;99.90
14405;DHT22;14983;50.866;4.304;2022-09-09T03:13:33;15.00;99.90
14405;DHT22;14983;50.866;4.304;2022-09-09T03:16:10;15.00;99.90
14405;DHT22;14983;50.866;4.304;2022-09-09T03:18:39;15.00;99.90
14405;DHT22;14983;50.866;4.304;2022-09-09T03:21:06;14.90;99.90
14405;DHT22;14983;50.866;4.304;2022-09-09T03:23:33;15.00;99.90
14405;DHT22;14983;50.866;4.304;2022-09-09T03:26:02;14.90;99.90
14405;DHT22;14983;50.866;4.304;2022-09-09T03:28:30;15.00;99.90
14405;DHT22;14983;50.866;4.304;2022-09-09T03:31:01;15.00;99.90
14405;DHT22;14983;50.866;4.304;2022-09-09T03:33:30;15.00;99.90
14405;DHT22;14983;50.866;4.304;2022-09-09T03:35:57;15.00;99.90
14405;DHT22;14983;50.866;4.304;2022-09-09T03:38:24;15.00;99.90
14405;DHT22;14983;50.866;4.304;2022-09-09T03:40:54;15.00;99.90
14405;DHT22;14983;50.866;4.304;2022-09-09T03:43:23;14.90;99.90
14405;DHT22;14983;50.866;4.304;2022-09-09T03:45:52;15.00;99.90
14405;DHT22;14983;50.866;4.304;2022-09-09T03:48:22;15.00;99.90
14405;DHT22;14983;50.866;4.304;2022-09-09T03:50:52;15.00;99.90
14405;DHT22;14983;50.866;4.304;2022-09-09T03:53:23;15.00;99.90
14405;DHT22;14983;50.866;4.304;2022-09-09T03:55:52;15.10;99.90
14405;DHT22;14983;50.866;4.304;2022-09-09T03:58:21;15.10;99.90
14405;DHT22;14983;50.866;4.304;2022-09-09T04:01:01;15.10;99.90
14405;DHT22;14983;50.866;4.304;2022-09-09T04:03:30;15.10;99.90
14405;DHT22;14983;50.866;4.304;2022-09-09T04:06:04;15.10;99.90
14405;DHT22;14983;50.866;4.304;2022-09-09T04:08:34;15.10;99.90
14405;DHT22;14983;50.866;4.304;2022-09-09T04:11:03;15.10;99.90
14405;DHT22;14983;50.866;4.304;2022-09-09T04:13:32;15.10;99.90
14405;DHT22;14983;50.866;4.304;2022-09-09T04:16:02;15.10;99.90
14405;DHT22;14983;50.866;4.304;2022-09-09T04:18:31;15.20;99.90
14405;DHT22;14983;50.866;4.304;2022-09-09T04:21:02;15.00;99.90
14405;DHT22;14983;50.866;4.304;2022-09-09T04:23:32;15.10;99.90
14405;DHT22;14983;50.866;4.304;2022-09-09T04:26:01;15.20;99.90
14405;DHT22;14983;50.866;4.304;2022-09-09T04:28:31;15.10;99.90
14405;DHT22;14983;50.866;4.304;2022-09-09T04:31:04;15.00;99.90
14405;DHT22;14983;50.866;4.304;2022-09-09T04:33:31;15.00;99.90
14405;DHT22;14983;50.866;4.304;2022-09-09T04:35:59;15.00;99.90
14405;DHT22;14983;50.866;4.304;2022-09-09T04:38:32;15.00;99.90
14405;DHT22;14983;50.866;4.304;2022-09-09T04:40:59;15.00;99.90
14405;DHT22;14983;50.866;4.304;2022-09-09T04:43:26;15.00;99.90
14405;DHT22;14983;50.866;4.304;2022-09-09T04:45:55;15.00;99.90
14405;DHT22;14983;50.866;4.304;2022-09-09T04:48:25;15.00;99.90
14405;DHT22;14983;50.866;4.304;2022-09-09T04:50:57;14.90;99.90
14405;DHT22;14983;50.866;4.304;2022-09-09T04:53:36;15.00;99.90
14405;DHT22;14983;50.866;4.304;2022-09-09T04:56:16;15.00;99.90
14405;DHT22;14983;50.866;4.304;2022-09-09T04:58:43;15.00;99.90
14405;DHT22;14983;50.866;4.304;2022-09-09T05:01:13;14.90;99.90
14405;DHT22;14983;50.866;4.304;2022-09-09T05:03:41;15.00;99.90
14405;DHT22;14983;50.866;4.304;2022-09-09T05:06:12;15.00;99.90
14405;DHT22;14983;50.866;4.304;2022-09-09T05:08:44;15.10;99.90
14405;DHT22;14983;50.866;4.304;2022-09-09T05:11:16;15.10;99.90
14405;DHT22;14983;50.866;4.304;2022-09-09T05:13:43;15.10;99.90
14405;DHT22;14983;50.866;4.304;2022-09-09T05:16:17;15.10;99.90
14405;DHT22;14983;50.866;4.304;2022-09-09T05:18:45;15.10;99.90
14405;DHT22;14983;50.866;4.304;2022-09-09T05:21:16;15.10;99.90
14405;DHT22;14983;50.866;4.304;2022-09-09T05:23:46;15.00;99.90
14405;DHT22;14983;50.866;4.304;2022-09-09T05:26:15;15.10;99.90
14405;DHT22;14983;50.866;4.304;2022-09-09T05:28:44;15.10;99.90
14405;DHT22;14983;50.866;4.304;2022-09-09T05:31:13;15.20;99.90
14405;DHT22;14983;50.866;4.304;2022-09-09T05:33:42;15.10;99.90
14405;DHT22;14983;50.866;4.304;2022-09-09T05:36:12;15.10;99.90
14405;DHT22;14983;50.866;4.304;2022-09-09T05:38:40;15.20;99.90
14405;DHT22;14983;50.866;4.304;2022-09-09T05:41:12;15.20;99.90
14405;DHT22;14983;50.866;4.304;2022-09-09T05:43:42;15.10;99.90
14405;DHT22;14983;50.866;4.304;2022-09-09T05:46:11;15.10;99.90
14405;DHT22;14983;50.866;4.304;2022-09-09T05:48:41;15.10;99.90
14405;DHT22;14983;50.866;4.304;2022-09-09T05:51:10;15.10;99.90
14405;DHT22;14983;50.866;4.304;2022-09-09T05:53:38;15.10;99.90
14405;DHT22;14983;50.866;4.304;2022-09-09T05:56:10;15.10;99.90
14405;DHT22;14983;50.866;4.304;2022-09-09T05:58:40;15.20;99.90
14405;DHT22;14983;50.866;4.304;2022-09-09T06:01:11;15.20;99.90
14405;DHT22;14983;50.866;4.304;2022-09-09T06:03:40;15.20;99.90
14405;DHT22;14983;50.866;4.304;2022-09-09T06:06:08;15.30;99.90
14405;DHT22;14983;50.866;4.304;2022-09-09T06:08:38;15.30;99.90
14405;DHT22;14983;50.866;4.304;2022-09-09T06:11:06;15.40;99.90
14405;DHT22;14983;50.866;4.304;2022-09-09T06:13:35;15.40;99.90
14405;DHT22;14983;50.866;4.304;2022-09-09T06:16:05;15.50;99.90
14405;DHT22;14983;50.866;4.304;2022-09-09T06:18:33;15.40;99.90
14405;DHT22;14983;50.866;4.304;2022-09-09T06:21:01;15.50;99.90
14405;DHT22;14983;50.866;4.304;2022-09-09T06:23:30;15.50;99.90
14405;DHT22;14983;50.866;4.304;2022-09-09T06:26:02;15.50;99.90
14405;DHT22;14983;50.866;4.304;2022-09-09T06:28:31;15.50;99.90
14405;DHT22;14983;50.866;4.304;2022-09-09T06:31:00;15.50;99.90
14405;DHT22;14983;50.866;4.304;2022-09-09T06:33:31;15.60;99.90
14405;DHT22;14983;50.866;4.304;2022-09-09T06:36:00;15.80;99.90
14405;DHT22;14983;50.866;4.304;2022-09-09T06:38:27;15.80;99.90
14405;DHT22;14983;50.866;4.304;2022-09-09T06:40:55;15.80;99.90
14405;DHT22;14983;50.866;4.304;2022-09-09T06:43:23;15.70;99.90
14405;DHT22;14983;50.866;4.304;2022-09-09T06:45:54;15.70;99.90
14405;DHT22;14983;50.866;4.304;2022-09-09T06:48:25;15.80;99.90
14405;DHT22;14983;50.866;4.304;2022-09-09T06:51:00;15.80;99.90
14405;DHT22;14983;50.866;4.304;2022-09-09T06:53:28;15.80;99.90
14405;DHT22;14983;50.866;4.304;2022-09-09T06:55:55;15.80;99.90
14405;DHT22;14983;50.866;4.304;2022-09-09T06:58:22;15.80;99.90
14405;DHT22;14983;50.866;4.304;2022-09-09T07:00:49;15.80;99.90
14405;DHT22;14983;50.866;4.304;2022-09-09T07:03:16;15.90;99.90
14405;DHT22;14983;50.866;4.304;2022-09-09T07:05:54;15.90;99.90
14405;DHT22;14983;50.866;4.304;2022-09-09T07:08:21;15.90;99.90
14405;DHT22;14983;50.866;4.304;2022-09-09T07:10:48;16.00;99.90
14405;DHT22;14983;50.866;4.304;2022-09-09T07:13:19;16.00;99.90
14405;DHT22;14983;50.866;4.304;2022-09-09T07:15:47;15.90;99.90
14405;DHT22;14983;50.866;4.304;2022-09-09T07:18:14;16.00;99.90
14405;DHT22;14983;50.866;4.304;2022-09-09T07:20:52;16.00;99.90
14405;DHT22;14983;50.866;4.304;2022-09-09T07:23:19;16.00;99.90
14405;DHT22;14983;50.866;4.304;2022-09-09T07:25:46;15.90;99.90
14405;DHT22;14983;50.866;4.304;2022-09-09T07:28:14;16.00;99.90
14405;DHT22;14983;50.866;4.304;2022-09-09T07:30:41;16.00;99.90
14405;DHT22;14983;50.866;4.304;2022-09-09T07:33:09;16.10;99.90
14405;DHT22;14983;50.866;4.304;2022-09-09T07:35:36;16.00;99.90
14405;DHT22;14983;50.866;4.304;2022-09-09T07:38:04;15.90;99.90
14405;DHT22;14983;50.866;4.304;2022-09-09T07:40:32;15.80;99.90
14405;DHT22;14983;50.866;4.304;2022-09-09T07:42:59;15.70;99.90
14405;DHT22;14983;50.866;4.304;2022-09-09T07:45:27;15.70;99.90
14405;DHT22;14983;50.866;4.304;2022-09-09T07:47:55;15.80;99.90
14405;DHT22;14983;50.866;4.304;2022-09-09T07:50:23;15.80;99.90
14405;DHT22;14983;50.866;4.304;2022-09-09T07:52:50;15.80;99.90
14405;DHT22;14983;50.866;4.304;2022-09-09T07:55:19;16.00;99.90
14405;DHT22;14983;50.866;4.304;2022-09-09T07:57:46;15.90;99.90
14405;DHT22;14983;50.866;4.304;2022-09-09T08:00:14;16.10;99.90
14405;DHT22;14983;50.866;4.304;2022-09-09T08:02:41;16.30;99.90
14405;DHT22;14983;50.866;4.304;2022-09-09T08:05:08;16.40;99.90
14405;DHT22;14983;50.866;4.304;2022-09-09T08:07:35;16.40;99.90
14405;DHT22;14983;50.866;4.304;2022-09-09T08:10:02;17.30;99.90
14405;DHT22;14983;50.866;4.304;2022-09-09T08:12:31;16.40;99.90
14405;DHT22;14983;50.866;4.304;2022-09-09T08:14:58;16.50;99.90
14405;DHT22;14983;50.866;4.304;2022-09-09T08:17:25;17.10;99.90
14405;DHT22;14983;50.866;4.304;2022-09-09T08:19:52;17.20;99.90
14405;DHT22;14983;50.866;4.304;2022-09-09T08:22:19;16.80;99.90
14405;DHT22;14983;50.866;4.304;2022-09-09T08:24:47;16.50;99.90
14405;DHT22;14983;50.866;4.304;2022-09-09T08:27:14;16.40;99.90
14405;DHT22;14983;50.866;4.304;2022-09-09T08:29:42;16.40;99.90
14405;DHT22;14983;50.866;4.304;2022-09-09T08:32:10;16.30;99.90
14405;DHT22;14983;50.866;4.304;2022-09-09T08:34:36;16.40;99.90
14405;DHT22;14983;50.866;4.304;2022-09-09T08:37:03;16.30;99.90
14405;DHT22;14983;50.866;4.304;2022-09-09T08:39:30;16.30;99.90
14405;DHT22;14983;50.866;4.304;2022-09-09T08:42:16;16.30;99.90
14405;DHT22;14983;50.866;4.304;2022-09-09T08:45:00;16.20;99.90
14405;DHT22;14983;50.866;4.304;2022-09-09T08:47:37;16.10;99.90
14405;DHT22;14983;50.866;4.304;2022-09-09T08:50:19;16.00;99.90
14405;DHT22;14983;50.866;4.304;2022-09-09T08:52:54;15.90;99.90
14405;DHT22;14983;50.866;4.304;2022-09-09T08:55:27;15.90;99.90
14405;DHT22;14983;50.866;4.304;2022-09-09T08:57:57;16.00;99.90
14405;DHT22;14983;50.866;4.304;2022-09-09T09:00:35;15.90;99.90
14405;DHT22;14983;50.866;4.304;2022-09-09T09:03:13;16.00;99.90
14405;DHT22;14983;50.866;4.304;2022-09-09T09:05:47;16.00;99.90
14405;DHT22;14983;50.866;4.304;2022-09-09T09:08:24;15.90;99.90
14405;DHT22;14983;50.866;4.304;2022-09-09T09:10:56;16.00;99.90
14405;DHT22;14983;50.866;4.304;2022-09-09T09:13:30;16.00;99.90
14405;DHT22;14983;50.866;4.304;2022-09-09T09:16:04;16.00;99.90
14405;DHT22;14983;50.866;4.304;2022-09-09T09:18:33;16.00;99.90
14405;DHT22;14983;50.866;4.304;2022-09-09T09:21:05;16.10;99.90
14405;DHT22;14983;50.866;4.304;2022-09-09T09:23:41;16.10;99.90
14405;DHT22;14983;50.866;4.304;2022-09-09T09:26:10;16.10;99.90
14405;DHT22;14983;50.866;4.304;2022-09-09T09:28:38;16.20;99.90
14405;DHT22;14983;50.866;4.304;2022-09-09T09:31:10;16.00;99.90
14405;DHT22;14983;50.866;4.304;2022-09-09T09:33:45;16.60;99.90
14405;DHT22;14983;50.866;4.304;2022-09-09T09:36:14;16.10;99.90
14405;DHT22;14983;50.866;4.304;2022-09-09T09:38:52;16.00;99.90
14405;DHT22;14983;50.866;4.304;2022-09-09T09:41:30;16.30;99.90
14405;DHT22;14983;50.866;4.304;2022-09-09T09:43:57;16.00;99.90
14405;DHT22;14983;50.866;4.304;2022-09-09T09:46:27;16.10;99.90
14405;DHT22;14983;50.866;4.304;2022-09-09T09:48:58;16.10;99.90
14405;DHT22;14983;50.866;4.304;2022-09-09T09:51:26;16.10;99.90
14405;DHT22;14983;50.866;4.304;2022-09-09T09:53:53;16.10;99.90
14405;DHT22;14983;50.866;4.304;2022-09-09T09:56:27;16.20;99.90
14405;DHT22;14983;50.866;4.304;2022-09-09T09:58:55;16.20;99.90
14405;DHT22;14983;50.866;4.304;2022-09-09T10:01:24;16.30;99.90
14405;DHT22;14983;50.866;4.304;2022-09-09T10:03:57;16.30;99.90
14405;DHT22;14983;50.866;4.304;2022-09-09T10:06:32;16.30;99.90
14405;DHT22;14983;50.866;4.304;2022-09-09T10:08:59;16.30;99.90
14405;DHT22;14983;50.866;4.304;2022-09-09T10:11:37;16.50;99.90
14405;DHT22;14983;50.866;4.304;2022-09-09T10:14:15;16.50;99.90
14405;DHT22;14983;50.866;4.304;2022-09-09T10:16:59;16.70;99.90
14405;DHT22;14983;50.866;4.304;2022-09-09T10:19:32;16.60;99.90
14405;DHT22;14983;50.866;4.304;2022-09-09T10:22:09;16.60;99.90
14405;DHT22;14983;50.866;4.304;2022-09-09T10:24:56;16.90;99.90
14405;DHT22;14983;50.866;4.304;2022-09-09T10:27:36;16.80;99.90
14405;DHT22;14983;50.866;4.304;2022-09-09T10:30:12;17.10;99.90
14405;DHT22;14983;50.866;4.304;2022-09-09T10:32:47;17.20;99.90
14405;DHT22;14983;50.866;4.304;2022-09-09T10:35:30;17.10;99.90
14405;DHT22;14983;50.866;4.304;2022-09-09T10:38:14;17.20;99.90
14405;DHT22;14983;50.866;4.304;2022-09-09T10:43:42;17.50;99.90
14405;DHT22;14983;50.866;4.304;2022-09-09T10:46:17;17.80;99.90
14405;DHT22;14983;50.866;4.304;2022-09-09T10:49:02;17.80;99.90
14405;DHT22;14983;50.866;4.304;2022-09-09T10:51:40;17.80;99.90
14405;DHT22;14983;50.866;4.304;2022-09-09T10:54:30;17.80;99.90
14405;DHT22;14983;50.866;4.304;2022-09-09T10:57:03;17.80;99.90
14405;DHT22;14983;50.866;4.304;2022-09-09T10:59:36;17.90;99.90
14405;DHT22;14983;50.866;4.304;2022-09-09T11:02:11;17.70;99.90
14405;DHT22;14983;50.866;4.304;2022-09-09T11:04:45;17.70;99.90
14405;DHT22;14983;50.866;4.304;2022-09-09T11:07:26;17.80;99.90
14405;DHT22;14983;50.866;4.304;2022-09-09T11:10:01;17.70;99.90
14405;DHT22;14983;50.866;4.304;2022-09-09T11:12:34;17.70;99.90
14405;DHT22;14983;50.866;4.304;2022-09-09T11:15:08;17.70;99.90
14405;DHT22;14983;50.866;4.304;2022-09-09T11:17:45;17.70;99.90
14405;DHT22;14983;50.866;4.304;2022-09-09T11:20:15;17.80;99.90
14405;DHT22;14983;50.866;4.304;2022-09-09T11:22:48;17.80;99.90
14405;DHT22;14983;50.866;4.304;2022-09-09T11:25:22;18.00;99.90
14405;DHT22;14983;50.866;4.304;2022-09-09T11:28:21;18.00;99.90
14405;DHT22;14983;50.866;4.304;2022-09-09T11:31:04;18.10;99.90
14405;DHT22;14983;50.866;4.304;2022-09-09T11:33:55;17.90;99.90
14405;DHT22;14983;50.866;4.304;2022-09-09T11:36:42;17.70;99.90
14405;DHT22;14983;50.866;4.304;2022-09-09T11:39:33;17.70;99.90
14405;DHT22;14983;50.866;4.304;2022-09-09T11:42:06;17.70;99.90
14405;DHT22;14983;50.866;4.304;2022-09-09T11:44:34;17.70;99.90
14405;DHT22;14983;50.866;4.304;2022-09-09T11:47:01;17.70;99.90
14405;DHT22;14983;50.866;4.304;2022-09-09T11:49:30;17.60;99.90
14405;DHT22;14983;50.866;4.304;2022-09-09T11:52:11;17.70;99.90
14405;DHT22;14983;50.866;4.304;2022-09-09T11:54:47;17.70;99.90
14405;DHT22;14983;50.866;4.304;2022-09-09T11:57:35;17.70;99.90
14405;DHT22;14983;50.866;4.304;2022-09-09T12:00:03;17.70;99.90
14405;DHT22;14983;50.866;4.304;2022-09-09T12:02:30;17.70;99.90
14405;DHT22;14983;50.866;4.304;2022-09-09T12:05:00;17.60;99.90
14405;DHT22;14983;50.866;4.304;2022-09-09T12:07:34;17.70;99.90
14405;DHT22;14983;50.866;4.304;2022-09-09T12:10:05;17.60;99.90
14405;DHT22;14983;50.866;4.304;2022-09-09T12:12:45;17.50;99.90
14405;DHT22;14983;50.866;4.304;2022-09-09T12:15:22;17.50;99.90
14405;DHT22;14983;50.866;4.304;2022-09-09T12:17:52;17.60;99.90
14405;DHT22;14983;50.866;4.304;2022-09-09T12:20:23;17.50;99.90
14405;DHT22;14983;50.866;4.304;2022-09-09T12:23:10;17.50;99.90
14405;DHT22;14983;50.866;4.304;2022-09-09T12:25:56;17.50;99.90
14405;DHT22;14983;50.866;4.304;2022-09-09T12:28:42;17.60;99.90
14405;DHT22;14983;50.866;4.304;2022-09-09T12:31:12;17.60;99.90
14405;DHT22;14983;50.866;4.304;2022-09-09T12:33:44;17.60;99.90
14405;DHT22;14983;50.866;4.304;2022-09-09T12:36:14;17.80;99.90
14405;DHT22;14983;50.866;4.304;2022-09-09T12:38:43;17.90;99.90
14405;DHT22;14983;50.866;4.304;2022-09-09T12:41:21;17.90;99.90
14405;DHT22;14983;50.866;4.304;2022-09-09T12:43:48;18.10;99.90
14405;DHT22;14983;50.866;4.304;2022-09-09T12:46:22;18.30;99.90
14405;DHT22;14983;50.866;4.304;2022-09-09T12:48:53;18.20;99.90
14405;DHT22;14983;50.866;4.304;2022-09-09T12:51:25;18.20;99.90
14405;DHT22;14983;50.866;4.304;2022-09-09T12:53:53;18.30;99.90
14405;DHT22;14983;50.866;4.304;2022-09-09T12:56:23;18.40;99.90
14405;DHT22;14983;50.866;4.304;2022-09-09T12:58:53;18.50;99.90
14405;DHT22;14983;50.866;4.304;2022-09-09T13:01:23;18.30;99.90
14405;DHT22;14983;50.866;4.304;2022-09-09T13:03:50;18.50;99.90
14405;DHT22;14983;50.866;4.304;2022-09-09T13:06:20;18.40;99.90
14405;DHT22;14983;50.866;4.304;2022-09-09T13:08:48;18.50;99.90
14405;DHT22;14983;50.866;4.304;2022-09-09T13:11:18;18.60;99.90
14405;DHT22;14983;50.866;4.304;2022-09-09T13:13:53;18.70;99.90
14405;DHT22;14983;50.866;4.304;2022-09-09T13:16:23;18.90;99.90
14405;DHT22;14983;50.866;4.304;2022-09-09T13:18:52;19.00;99.90
14405;DHT22;14983;50.866;4.304;2022-09-09T13:21:31;19.20;99.90
14405;DHT22;14983;50.866;4.304;2022-09-09T13:24:01;19.00;99.90
14405;DHT22;14983;50.866;4.304;2022-09-09T13:26:30;19.00;99.90
14405;DHT22;14983;50.866;4.304;2022-09-09T13:29:15;19.10;99.90
14405;DHT22;14983;50.866;4.304;2022-09-09T13:31:45;19.40;99.90
14405;DHT22;14983;50.866;4.304;2022-09-09T13:34:13;19.80;99.90
14405;DHT22;14983;50.866;4.304;2022-09-09T13:36:41;20.00;99.90
14405;DHT22;14983;50.866;4.304;2022-09-09T13:39:15;19.90;99.90
14405;DHT22;14983;50.866;4.304;2022-09-09T13:41:43;19.80;99.90
14405;DHT22;14983;50.866;4.304;2022-09-09T13:44:21;20.00;99.90
14405;DHT22;14983;50.866;4.304;2022-09-09T13:47:00;20.40;99.90
14405;DHT22;14983;50.866;4.304;2022-09-09T13:49:30;20.30;99.90
14405;DHT22;14983;50.866;4.304;2022-09-09T13:52:11;20.00;99.90
14405;DHT22;14983;50.866;4.304;2022-09-09T13:54:38;19.80;99.90
14405;DHT22;14983;50.866;4.304;2022-09-09T13:57:14;19.60;99.90
14405;DHT22;14983;50.866;4.304;2022-09-09T13:59:44;19.60;99.90
14405;DHT22;14983;50.866;4.304;2022-09-09T14:02:11;20.40;99.90
14405;DHT22;14983;50.866;4.304;2022-09-09T14:04:38;20.20;99.90
14405;DHT22;14983;50.866;4.304;2022-09-09T14:07:10;20.00;99.90
14405;DHT22;14983;50.866;4.304;2022-09-09T14:09:38;20.40;99.90
14405;DHT22;14983;50.866;4.304;2022-09-09T14:12:08;20.60;99.90
14405;DHT22;14983;50.866;4.304;2022-09-09T14:14:35;20.50;1.00
14405;DHT22;14983;50.866;4.304;2022-09-09T14:17:03;20.20;99.90
14405;DHT22;14983;50.866;4.304;2022-09-09T14:19:30;19.90;1.00
14405;DHT22;14983;50.866;4.304;2022-09-09T14:21:57;19.50;99.90
14405;DHT22;14983;50.866;4.304;2022-09-09T14:24:24;19.30;1.00
14405;DHT22;14983;50.866;4.304;2022-09-09T14:26:51;19.30;1.00
14405;DHT22;14983;50.866;4.304;2022-09-09T14:29:18;19.40;1.00
14405;DHT22;14983;50.866;4.304;2022-09-09T14:31:45;19.80;32.30
14405;DHT22;14983;50.866;4.304;2022-09-09T14:34:14;20.20;99.90
14405;DHT22;14983;50.866;4.304;2022-09-09T14:36:41;20.30;99.90
14405;DHT22;14983;50.866;4.304;2022-09-09T14:39:09;20.30;99.90
14405;DHT22;14983;50.866;4.304;2022-09-09T14:41:36;20.20;99.90
14405;DHT22;14983;50.866;4.304;2022-09-09T14:44:03;20.30;1.00
14405;DHT22;14983;50.866;4.304;2022-09-09T14:46:30;20.50;1.00
14405;DHT22;14983;50.866;4.304;2022-09-09T14:49:00;20.80;31.10
14405;DHT22;14983;50.866;4.304;2022-09-09T14:51:28;21.60;99.90
14405;DHT22;14983;50.866;4.304;2022-09-09T14:53:59;22.20;63.80
14405;DHT22;14983;50.866;4.304;2022-09-09T14:56:31;22.30;1.00
14405;DHT22;14983;50.866;4.304;2022-09-09T14:59:01;22.20;1.00
14405;DHT22;14983;50.866;4.304;2022-09-09T15:01:30;21.60;1.00
14405;DHT22;14983;50.866;4.304;2022-09-09T15:03:59;20.70;99.90
14405;DHT22;14983;50.866;4.304;2022-09-09T15:06:31;20.30;99.90
14405;DHT22;14983;50.866;4.304;2022-09-09T15:08:58;20.00;1.00
14405;DHT22;14983;50.866;4.304;2022-09-09T15:11:27;20.00;64.70
14405;DHT22;14983;50.866;4.304;2022-09-09T15:13:56;20.10;29.80
14405;DHT22;14983;50.866;4.304;2022-09-09T15:16:25;20.10;1.00
14405;DHT22;14983;50.866;4.304;2022-09-09T15:18:54;20.10;99.90
14405;DHT22;14983;50.866;4.304;2022-09-09T15:21:23;20.50;99.90
14405;DHT22;14983;50.866;4.304;2022-09-09T15:23:51;20.60;1.00
14405;DHT22;14983;50.866;4.304;2022-09-09T15:26:19;20.30;99.90
14405;DHT22;14983;50.866;4.304;2022-09-09T15:28:46;20.00;1.00
14405;DHT22;14983;50.866;4.304;2022-09-09T15:31:16;19.90;99.90
14405;DHT22;14983;50.866;4.304;2022-09-09T15:33:47;19.60;99.90
14405;DHT22;14983;50.866;4.304;2022-09-09T15:36:16;19.60;23.70
14405;DHT22;14983;50.866;4.304;2022-09-09T15:38:43;19.60;1.00
14405;DHT22;14983;50.866;4.304;2022-09-09T15:41:13;19.90;99.90
14405;DHT22;14983;50.866;4.304;2022-09-09T15:43:43;20.60;99.90
14405;DHT22;14983;50.866;4.304;2022-09-09T15:46:23;20.90;1.00
14405;DHT22;14983;50.866;4.304;2022-09-09T15:48:53;20.70;43.30
14405;DHT22;14983;50.866;4.304;2022-09-09T15:51:21;20.30;1.00
14405;DHT22;14983;50.866;4.304;2022-09-09T15:53:50;19.90;1.00
14405;DHT22;14983;50.866;4.304;2022-09-09T15:56:21;20.00;1.00
14405;DHT22;14983;50.866;4.304;2022-09-09T15:58:48;20.10;99.90
14405;DHT22;14983;50.866;4.304;2022-09-09T16:01:15;19.80;1.00
14405;DHT22;14983;50.866;4.304;2022-09-09T16:03:42;19.70;99.90